Time;durP1;ratioP1;P1;durP2;ratioP2;P2;SDS_P1;SDS_P2;PMS_P1;PMS_P2;Temp;Humidity;BMP_temperature;BMP_pressure;BME280_temperature;BME280_humidity;BME280_pressure;Samples;Min_cycle;Max_cycle;Signal;HPM_P1;HPM_P2
2023/06/04 00:01:12;;;;;;;3.97;1.47;;;;;;;15.24;39.97;100677.53;5023499;28;20191;-64
2023/06/04 00:03:42;;;;;;;1.97;1.10;;;;;;;15.31;39.78;100676.63;5022317;28;20199;-64
2023/06/04 00:06:09;;;;;;;1.57;1.30;;;;;;;15.27;39.52;100672.19;5029119;28;20766;-64
2023/06/04 00:08:35;;;;;;;3.20;1.50;;;;;;;15.26;39.30;100669.53;5029667;28;20623;-64
2023/06/04 00:11:02;;;;;;;3.20;1.30;;;;;;;15.36;39.57;100677.50;5026415;28;20196;-64
2023/06/04 00:13:28;;;;;;;4.50;1.60;;;;;;;15.20;39.93;100683.75;5025869;28;20639;-64
2023/06/04 00:15:55;;;;;;;2.83;1.30;;;;;;;15.15;40.38;100680.19;5026897;28;20219;-64
2023/06/04 00:18:21;;;;;;;4.47;1.50;;;;;;;15.06;40.51;100677.53;5026829;28;20302;-64
2023/06/04 00:20:48;;;;;;;1.80;1.30;;;;;;;15.05;40.08;100668.66;5027593;28;20199;-64
2023/06/04 00:23:14;;;;;;;1.80;1.40;;;;;;;14.99;40.63;100675.75;5024891;28;20199;-64
2023/06/04 00:25:40;;;;;;;2.10;1.67;;;;;;;14.99;40.44;100682.00;5028741;28;20242;-63
2023/06/04 00:28:07;;;;;;;1.83;1.40;;;;;;;14.78;41.17;100678.41;5028799;28;20275;-64
2023/06/04 00:30:33;;;;;;;2.47;1.20;;;;;;;14.61;41.91;100673.97;5027689;28;20633;-64
2023/06/04 00:33:01;;;;;;;5.07;1.30;;;;;;;14.51;42.29;100668.63;5026326;28;20223;-64
2023/06/04 00:35:27;;;;;;;1.33;1.13;;;;;;;14.47;42.49;100678.38;5028298;28;20211;-64
2023/06/04 00:37:53;;;;;;;4.10;1.33;;;;;;;14.31;43.44;100680.06;5024323;28;20684;-64
2023/06/04 00:40:20;;;;;;;2.03;1.30;;;;;;;14.32;43.87;100684.50;5027027;28;20577;-64
2023/06/04 00:42:46;;;;;;;1.63;1.40;;;;;;;14.20;43.82;100686.25;5025873;28;20199;-64
2023/06/04 00:45:13;;;;;;;3.43;1.30;;;;;;;14.08;44.45;100676.47;5028073;28;20400;-64
2023/06/04 00:47:40;;;;;;;3.30;1.40;;;;;;;13.95;44.85;100680.81;5028361;28;20655;-64
2023/06/04 00:50:07;;;;;;;3.13;1.30;;;;;;;13.82;45.29;100680.75;5027182;28;20192;-64
2023/06/04 00:52:34;;;;;;;1.73;1.40;;;;;;;13.99;45.62;100679.06;5027488;28;20257;-64
2023/06/04 00:55:02;;;;;;;1.87;1.50;;;;;;;13.88;45.65;100676.34;5026275;28;20220;-64
2023/06/04 00:57:28;;;;;;;2.07;1.37;;;;;;;13.64;46.29;100682.47;5027652;28;20222;-64
2023/06/04 00:59:55;;;;;;;2.63;1.60;;;;;;;13.66;46.74;100685.13;5022719;28;20544;-64
2023/06/04 01:02:23;;;;;;;2.70;1.60;;;;;;;13.62;47.23;100678.91;5023765;28;20206;-64
2023/06/04 01:04:58;;;;;;;1.60;1.50;;;;;;;13.64;45.93;100681.56;5026429;28;20202;-64
2023/06/04 01:07:28;;;;;;;2.23;1.27;;;;;;;13.57;46.10;100677.97;5027521;28;20202;-63
2023/06/04 01:09:55;;;;;;;3.90;1.40;;;;;;;13.55;45.45;100674.41;5023370;28;20213;-64
2023/06/04 01:12:22;;;;;;;3.23;1.53;;;;;;;13.68;44.43;100670.94;5027820;28;20676;-64
2023/06/04 01:14:48;;;;;;;4.20;1.40;;;;;;;13.91;43.96;100675.47;5023582;28;20203;-64
2023/06/04 01:17:36;;;;;;;2.80;1.53;;;;;;;13.92;43.75;100685.25;5024239;28;20286;-64
2023/06/04 01:20:26;;;;;;;2.40;1.50;;;;;;;13.91;43.58;100680.81;5021427;28;20206;-64
2023/06/04 01:22:59;;;;;;;3.93;1.63;;;;;;;14.04;43.05;100674.66;5024654;28;20200;-64
2023/06/04 01:25:37;;;;;;;2.07;1.50;;;;;;;14.18;42.71;100666.72;5019616;28;20242;-64
2023/06/04 01:28:04;;;;;;;5.63;1.43;;;;;;;14.20;42.35;100676.50;5021455;28;20205;-64
2023/06/04 01:30:34;;;;;;;1.60;1.30;;;;;;;14.21;42.31;100675.59;5024887;28;20198;-64
2023/06/04 01:33:01;;;;;;;5.93;1.43;;;;;;;14.06;43.11;100667.56;5027945;28;20299;-64
2023/06/04 01:35:31;;;;;;;3.10;1.40;;;;;;;14.08;42.78;100671.13;5028379;28;20269;-64
2023/06/04 01:37:57;;;;;;;4.77;1.67;;;;;;;14.15;42.17;100666.72;5028504;28;20276;-64
2023/06/04 01:40:25;;;;;;;2.07;1.40;;;;;;;14.06;42.81;100671.13;5026023;28;20200;-64
2023/06/04 01:42:52;;;;;;;3.13;1.30;;;;;;;14.03;42.88;100667.56;5024346;28;20207;-64
2023/06/04 01:45:21;;;;;;;3.63;1.50;;;;;;;14.01;43.19;100677.31;5025177;28;20231;-64
2023/06/04 01:47:48;;;;;;;2.00;1.50;;;;;;;13.87;43.36;100671.03;5031094;28;20200;-64
2023/06/04 01:50:14;;;;;;;2.47;1.47;;;;;;;13.70;44.77;100669.19;5026253;28;20211;-64
2023/06/04 01:52:41;;;;;;;1.60;1.40;;;;;;;13.47;46.70;100673.47;5020527;28;20283;-64
2023/06/04 01:55:11;;;;;;;3.37;1.40;;;;;;;13.31;48.17;100677.81;5026634;28;20787;-64
2023/06/04 01:57:39;;;;;;;2.43;1.40;;;;;;;12.98;49.41;100680.19;5031197;28;20199;-64
2023/06/04 02:00:10;;;;;;;3.37;1.40;;;;;;;12.71;51.05;100680.81;5025886;28;20711;-64
2023/06/04 02:02:36;;;;;;;2.87;1.67;;;;;;;12.54;51.42;100680.66;5021479;28;20218;-64
2023/06/04 02:05:07;;;;;;;1.87;1.30;;;;;;;12.37;52.50;100685.78;5024379;28;20234;-64
2023/06/04 02:07:35;;;;;;;2.90;1.60;;;;;;;12.41;52.56;100677.00;5031133;28;20202;-63
2023/06/04 02:10:01;;;;;;;6.53;1.37;;;;;;;12.46;52.67;100682.38;5030528;28;20191;-64
2023/06/04 02:12:28;;;;;;;1.87;1.37;;;;;;;12.36;52.67;100672.50;5031498;28;20234;-64
2023/06/04 02:14:54;;;;;;;3.30;1.33;;;;;;;12.32;53.15;100668.91;5027002;28;20287;-64
2023/06/04 02:17:21;;;;;;;2.90;1.57;;;;;;;12.10;53.87;100673.09;5030234;28;20199;-65
2023/06/04 02:19:50;;;;;;;4.50;1.60;;;;;;;11.87;54.05;100670.16;5028652;28;20320;-65
2023/06/04 02:22:18;;;;;;;3.87;1.40;;;;;;;11.67;55.43;100679.59;5030795;28;20233;-65
2023/06/04 02:24:45;;;;;;;2.50;1.50;;;;;;;11.46;56.49;100674.00;5028929;28;20285;-65
2023/06/04 02:27:12;;;;;;;2.47;1.53;;;;;;;11.32;57.15;100679.09;5028977;28;20273;-63
2023/06/04 02:29:40;;;;;;;2.37;1.50;;;;;;;11.23;57.91;100686.91;5030302;28;20278;-64
2023/06/04 02:32:07;;;;;;;2.07;1.47;;;;;;;11.14;58.18;100674.38;5030545;28;20688;-64
2023/06/04 02:34:34;;;;;;;2.30;1.53;;;;;;;11.16;58.72;100674.41;5027232;28;20248;-65
2023/06/04 02:37:01;;;;;;;2.03;1.30;;;;;;;11.12;58.99;100668.19;5029499;28;20193;-63
2023/06/04 02:39:28;;;;;;;2.20;1.40;;;;;;;11.10;59.31;100672.56;5026423;28;20218;-64
2023/06/04 02:41:54;;;;;;;2.40;1.53;;;;;;;11.02;59.91;100670.66;5030614;28;20203;-65
2023/06/04 02:44:21;;;;;;;1.90;1.43;;;;;;;10.96;60.71;100676.75;5031225;28;20296;-64
2023/06/04 02:46:47;;;;;;;3.07;1.47;;;;;;;10.92;60.42;100675.81;5025081;28;20220;-66
2023/06/04 02:49:14;;;;;;;2.00;1.40;;;;;;;10.87;60.18;100679.25;5024601;28;20202;-65
2023/06/04 02:51:41;;;;;;;2.50;1.30;;;;;;;10.81;60.00;100677.41;5029165;28;20195;-66
2023/06/04 02:54:07;;;;;;;3.67;1.57;;;;;;;10.78;60.26;100676.44;5027394;28;20380;-64
2023/06/04 02:56:36;;;;;;;4.70;1.30;;;;;;;10.77;60.69;100677.31;5026816;28;20699;-64
2023/06/04 02:59:03;;;;;;;2.73;1.40;;;;;;;10.78;60.30;100679.09;5028763;28;20227;-65
2023/06/04 03:01:30;;;;;;;2.47;1.43;;;;;;;10.78;60.38;100677.31;5030322;28;20213;-65
2023/06/04 03:03:57;;;;;;;2.17;1.47;;;;;;;10.80;60.67;100674.69;5028322;28;20230;-65
2023/06/04 03:06:23;;;;;;;2.30;1.47;;;;;;;10.80;61.19;100677.34;5027992;28;20229;-64
2023/06/04 03:08:51;;;;;;;1.97;1.57;;;;;;;10.87;61.66;100672.22;5030330;28;20213;-66
2023/06/04 03:11:21;;;;;;;4.60;1.60;;;;;;;11.08;59.92;100674.31;5031200;28;20202;-66
2023/06/04 03:13:48;;;;;;;3.30;1.50;;;;;;;11.16;58.73;100675.31;5026271;28;20603;-66
2023/06/04 03:16:14;;;;;;;2.07;1.47;;;;;;;11.10;59.45;100675.22;5025578;28;20222;-66
2023/06/04 03:18:42;;;;;;;3.40;1.43;;;;;;;11.10;59.66;100679.63;5026774;28;20225;-66
2023/06/04 03:21:11;;;;;;;3.47;1.40;;;;;;;11.14;59.61;100679.69;5027209;28;20198;-66
2023/06/04 03:23:37;;;;;;;1.97;1.40;;;;;;;11.20;59.63;100676.25;5029349;28;20198;-65
2023/06/04 03:26:05;;;;;;;3.53;1.37;;;;;;;11.09;59.35;100677.84;5026762;28;20223;-67
2023/06/04 03:28:32;;;;;;;3.13;1.40;;;;;;;10.99;59.13;100687.41;5019356;28;20195;-67
2023/06/04 03:30:59;;;;;;;1.70;1.20;;;;;;;10.91;58.92;100687.28;5028103;28;20750;-66
2023/06/04 03:33:26;;;;;;;2.60;1.60;;;;;;;10.90;60.12;100684.63;5029244;28;20259;-67
2023/06/04 03:35:52;;;;;;;2.57;1.47;;;;;;;10.86;60.87;100685.44;5028743;28;20658;-65
2023/06/04 03:38:19;;;;;;;2.33;1.57;;;;;;;10.84;61.33;100684.53;5026837;28;20210;-67
2023/06/04 03:40:46;;;;;;;2.30;1.40;;;;;;;10.77;61.71;100683.50;5029539;28;20721;-66
2023/06/04 03:43:12;;;;;;;3.47;1.40;;;;;;;10.74;61.52;100679.91;5024529;28;20674;-66
2023/06/04 03:45:38;;;;;;;3.90;1.70;;;;;;;10.77;62.03;100690.53;5029848;28;20595;-68
2023/06/04 03:48:05;;;;;;;2.33;1.20;;;;;;;10.77;63.42;100685.25;5026244;28;20195;-69
2023/06/04 03:50:32;;;;;;;1.80;1.33;;;;;;;10.82;63.51;100681.84;5025794;28;20365;-67
2023/06/04 03:52:58;;;;;;;3.60;1.43;;;;;;;10.85;64.48;100687.19;5029359;28;20204;-68
2023/06/04 03:55:25;;;;;;;2.57;1.40;;;;;;;11.10;64.61;100685.81;5022544;28;20279;-68
2023/06/04 03:57:51;;;;;;;2.43;1.83;;;;;;;11.02;63.87;100691.88;5023612;28;20202;-68
2023/06/04 04:00:20;;;;;;;2.50;1.57;;;;;;;11.01;62.59;100690.09;5026946;28;20232;-69
2023/06/04 04:02:48;;;;;;;2.37;1.60;;;;;;;10.95;62.31;100690.88;5022242;28;20662;-69
2023/06/04 04:05:14;;;;;;;2.60;1.47;;;;;;;10.96;62.54;100690.00;5021172;28;20707;-68
2023/06/04 04:07:42;;;;;;;1.73;1.30;;;;;;;10.97;61.64;100695.34;5024989;28;20209;-67
2023/06/04 04:10:10;;;;;;;3.37;1.70;;;;;;;11.05;62.29;100686.63;5028712;28;20194;-72
2023/06/04 04:12:36;;;;;;;3.00;1.70;;;;;;;11.10;63.20;100690.22;5025376;28;20200;-73
2023/06/04 04:15:04;;;;;;;3.37;1.80;;;;;;;11.26;63.78;100682.56;5024726;28;20224;-72
2023/06/04 04:17:30;;;;;;;2.77;1.90;;;;;;;11.33;63.40;100686.19;5025702;28;20210;-69
2023/06/04 04:19:57;;;;;;;5.23;1.93;;;;;;;11.40;62.68;100682.75;5028548;28;20305;-72
2023/06/04 04:22:23;;;;;;;3.40;2.10;;;;;;;11.38;63.24;100686.25;5028604;28;20211;-70
2023/06/04 04:24:50;;;;;;;2.90;1.93;;;;;;;11.38;62.43;100697.75;5027963;28;20206;-71
2023/06/04 04:27:16;;;;;;;4.07;1.77;;;;;;;11.40;62.47;100705.72;5028734;28;20205;-71
2023/06/04 04:29:43;;;;;;;2.40;1.70;;;;;;;11.43;63.69;100703.13;5029463;28;20191;-68
2023/06/04 04:32:12;;;;;;;4.27;2.20;;;;;;;11.47;63.20;100705.84;5023849;28;20208;-71
2023/06/04 04:34:51;;;;;;;2.37;1.67;;;;;;;11.54;64.14;100704.16;5025087;28;20274;-68
2023/06/04 04:37:21;;;;;;;2.37;1.77;;;;;;;11.64;63.17;100703.44;5028715;28;20596;-70
2023/06/04 04:39:47;;;;;;;1.73;1.50;;;;;;;11.75;62.95;100699.16;5024373;28;20212;-69
2023/06/04 04:42:13;;;;;;;4.30;1.63;;;;;;;11.86;62.67;100702.88;5029403;28;20253;-67
2023/06/04 04:44:40;;;;;;;2.40;1.40;;;;;;;12.09;61.85;100711.16;5025714;28;20253;-65
2023/06/04 04:47:06;;;;;;;3.90;1.60;;;;;;;12.40;58.76;100717.69;5029100;28;20198;-66
2023/06/04 04:49:33;;;;;;;4.83;1.43;;;;;;;12.68;56.64;100715.34;5021945;28;20192;-65
2023/06/04 04:51:59;;;;;;;2.17;1.50;;;;;;;12.82;56.61;100721.69;5028949;28;20214;-65
2023/06/04 04:54:25;;;;;;;1.83;1.53;;;;;;;13.03;55.96;100726.31;5026922;28;20586;-66
2023/06/04 04:56:52;;;;;;;4.77;1.50;;;;;;;13.10;55.99;100722.81;5023827;28;20221;-66
2023/06/04 04:59:37;;;;;;;2.40;1.50;;;;;;;13.21;55.25;100721.19;5029223;28;20287;-65
2023/06/04 05:02:04;;;;;;;4.80;1.70;;;;;;;13.37;55.61;100723.06;5028880;28;20192;-65
2023/06/04 05:04:30;;;;;;;1.87;1.63;;;;;;;13.53;55.36;100720.50;5026516;28;20275;-65
2023/06/04 05:06:57;;;;;;;4.67;1.73;;;;;;;13.64;54.86;100726.81;5028114;28;20277;-65
2023/06/04 05:09:23;;;;;;;2.60;1.37;;;;;;;13.78;54.56;100712.69;5026992;28;20683;-65
2023/06/04 05:11:51;;;;;;;2.90;1.60;;;;;;;13.88;54.01;100720.72;5027579;28;20198;-66
2023/06/04 05:14:17;;;;;;;1.97;1.60;;;;;;;13.93;53.99;100724.31;5024285;28;20710;-65
2023/06/04 05:16:44;;;;;;;2.30;1.50;;;;;;;13.95;53.40;100726.09;5028358;28;20222;-66
2023/06/04 05:19:10;;;;;;;3.60;2.00;;;;;;;14.02;53.35;100730.59;5028359;28;20237;-66
2023/06/04 05:21:37;;;;;;;3.07;1.90;;;;;;;14.17;53.65;100734.19;5028131;28;20217;-67
2023/06/04 05:24:03;;;;;;;2.83;1.60;;;;;;;14.27;53.78;100736.91;5026972;28;20248;-67
2023/06/04 05:26:30;;;;;;;2.03;1.60;;;;;;;14.39;53.60;100731.59;5025809;28;20730;-66
2023/06/04 05:28:58;;;;;;;3.10;1.57;;;;;;;14.64;52.73;100737.03;5023983;28;20281;-67
2023/06/04 05:31:27;;;;;;;3.53;1.77;;;;;;;14.81;52.53;100740.66;5023836;28;20203;-65
2023/06/04 05:33:54;;;;;;;1.97;1.57;;;;;;;14.88;52.67;100736.22;5026537;28;20196;-65
2023/06/04 05:36:20;;;;;;;4.03;1.73;;;;;;;14.92;52.61;100743.34;5028487;28;20314;-66
2023/06/04 05:38:47;;;;;;;3.13;1.60;;;;;;;15.04;52.45;100746.00;5026874;28;21621;-65
2023/06/04 05:41:13;;;;;;;3.13;1.73;;;;;;;15.21;51.79;100748.66;5024478;28;20202;-66
2023/06/04 05:43:40;;;;;;;3.60;1.80;;;;;;;15.38;51.22;100744.22;5024241;28;20219;-65
2023/06/04 05:46:07;;;;;;;2.97;1.83;;;;;;;15.65;51.35;100744.25;5026328;28;20226;-67
2023/06/04 05:48:34;;;;;;;3.27;1.67;;;;;;;16.63;48.60;100740.31;5027825;28;20278;-67
2023/06/04 05:51:00;;;;;;;2.40;1.60;;;;;;;17.05;44.20;100740.06;5025481;28;20196;-67
2023/06/04 05:53:27;;;;;;;1.63;1.23;;;;;;;17.33;44.08;100735.41;5023008;28;20196;-66
2023/06/04 05:55:53;;;;;;;1.93;1.57;;;;;;;18.02;40.02;100724.91;5023217;28;20254;-66
2023/06/04 05:58:19;;;;;;;1.63;1.30;;;;;;;17.94;38.90;100736.59;5028322;28;20203;-67
2023/06/04 06:00:46;;;;;;;2.37;1.57;;;;;;;17.74;39.23;100736.84;5027028;28;20239;-66
2023/06/04 06:03:12;;;;;;;4.33;1.67;;;;;;;17.56;38.12;100745.88;5028568;28;20204;-67
2023/06/04 06:05:39;;;;;;;2.00;1.30;;;;;;;17.39;38.01;100748.72;5020722;28;20265;-66
2023/06/04 06:08:06;;;;;;;3.77;1.50;;;;;;;17.33;38.87;100748.78;5023390;28;20261;-67
2023/06/04 06:10:32;;;;;;;4.23;1.57;;;;;;;17.29;39.16;100748.81;5027921;28;20195;-67
2023/06/04 06:13:00;;;;;;;3.30;1.40;;;;;;;17.38;39.12;100749.63;5026747;28;20295;-64
2023/06/04 06:15:28;;;;;;;2.53;1.20;;;;;;;17.40;38.75;100749.63;5024079;28;20306;-64
2023/06/04 06:17:55;;;;;;;2.33;1.20;;;;;;;17.53;39.02;100751.28;5025111;28;20250;-64
2023/06/04 06:20:22;;;;;;;2.10;1.47;;;;;;;17.67;38.27;100759.22;5025769;28;20306;-64
2023/06/04 06:22:48;;;;;;;3.60;1.50;;;;;;;17.73;37.06;100759.16;5027224;28;20203;-67
2023/06/04 06:25:15;;;;;;;2.77;1.30;;;;;;;17.79;37.35;100749.28;5028330;28;20643;-67
2023/06/04 06:27:42;;;;;;;4.40;1.60;;;;;;;17.94;37.52;100752.69;5028042;28;20584;-66
2023/06/04 06:30:09;;;;;;;1.93;1.40;;;;;;;17.99;35.73;100757.06;5031428;28;20275;-67
2023/06/04 06:32:36;;;;;;;1.77;1.20;;;;;;;18.06;34.02;100757.94;5030921;28;20211;-67
2023/06/04 06:35:03;;;;;;;1.87;1.23;;;;;;;18.01;33.70;100757.97;5028964;28;20215;-67
2023/06/04 06:37:29;;;;;;;4.43;1.20;;;;;;;18.05;34.77;100767.75;5028719;28;20712;-67
2023/06/04 06:39:57;;;;;;;2.33;1.20;;;;;;;18.17;33.97;100767.63;5029712;28;20821;-67
2023/06/04 06:42:23;;;;;;;2.97;1.07;;;;;;;18.20;33.00;100761.31;5028902;28;20206;-67
2023/06/04 06:44:50;;;;;;;3.00;1.53;;;;;;;18.31;33.48;100770.13;5026172;28;20284;-64
2023/06/04 06:47:16;;;;;;;3.97;1.30;;;;;;;18.35;33.22;100766.50;5028630;28;20207;-66
2023/06/04 06:49:43;;;;;;;1.40;1.30;;;;;;;18.39;33.16;100768.22;5029740;28;20258;-65
2023/06/04 06:52:09;;;;;;;3.00;1.30;;;;;;;18.51;34.19;100764.53;5028214;28;20275;-66
2023/06/04 06:54:36;;;;;;;3.40;1.30;;;;;;;18.71;32.99;100767.84;5029695;28;20218;-66
2023/06/04 06:57:08;;;;;;;3.43;1.30;;;;;;;18.85;32.42;100773.03;5025552;28;20192;-66
2023/06/04 06:59:35;;;;;;;3.03;1.47;;;;;;;19.00;32.96;100780.84;5028603;28;20216;-66
2023/06/04 07:02:01;;;;;;;2.57;1.50;;;;;;;19.13;32.50;100780.66;5027462;28;20213;-66
2023/06/04 07:04:28;;;;;;;2.17;1.33;;;;;;;19.42;32.07;100781.97;5028531;28;20199;-66
2023/06/04 07:06:54;;;;;;;2.20;1.40;;;;;;;20.53;30.64;100786.25;5026740;28;20306;-65
2023/06/04 07:09:21;;;;;;;2.70;1.40;;;;;;;22.74;27.29;100772.50;5028458;28;20238;-66
2023/06/04 07:11:47;;;;;;;3.43;1.30;;;;;;;25.13;24.09;100783.06;5031206;28;20294;-67
2023/06/04 07:14:14;;;;;;;2.17;1.47;;;;;;;27.03;21.26;100781.03;5028115;28;20656;-67
2023/06/04 07:16:40;;;;;;;6.72;1.83;;;;;;;27.75;20.52;100776.53;5025286;28;20636;-66
2023/06/04 07:19:07;;;;;;;3.67;1.33;;;;;;;28.99;19.14;100786.22;5026813;28;20215;-66
2023/06/04 07:21:33;;;;;;;5.25;1.60;;;;;;;29.61;18.67;100773.53;5029749;28;20219;-66
2023/06/04 07:23:59;;;;;;;2.15;1.60;;;;;;;29.40;18.22;100786.56;5027002;28;20687;-66
2023/06/04 07:26:30;;;;;;;1.65;1.25;;;;;;;30.28;17.42;100785.84;5023317;28;20219;-67
2023/06/04 07:29:00;;;;;;;1.70;1.40;;;;;;;30.77;16.84;100788.25;5026696;28;20595;-67
2023/06/04 07:31:26;;;;;;;3.50;1.40;;;;;;;30.85;16.94;100786.81;5026882;28;20216;-67
2023/06/04 07:33:53;;;;;;;2.85;1.35;;;;;;;30.48;17.15;100776.41;5029344;28;20192;-66
2023/06/04 07:36:20;;;;;;;2.72;1.38;;;;;;;29.39;16.92;100783.94;5030374;28;20219;-66
2023/06/04 07:38:46;;;;;;;3.30;1.35;;;;;;;29.46;17.36;100786.22;5021831;28;20217;-66
2023/06/04 07:41:13;;;;;;;2.25;1.30;;;;;;;29.53;17.75;100789.47;5027928;28;20226;-66
2023/06/04 07:43:40;;;;;;;2.80;1.48;;;;;;;29.70;17.17;100791.22;5028808;28;20250;-66
2023/06/04 07:46:07;;;;;;;1.65;1.20;;;;;;;29.53;17.26;100787.63;5029304;28;20703;-66
2023/06/04 07:48:33;;;;;;;1.75;1.38;;;;;;;29.79;17.35;100783.34;5027032;28;20192;-66
2023/06/04 07:51:01;;;;;;;1.73;1.20;;;;;;;29.06;17.92;100803.09;5025952;28;20652;-66
2023/06/04 07:53:28;;;;;;;2.22;1.38;;;;;;;28.26;18.41;100795.69;5030031;28;20295;-66
2023/06/04 07:55:55;;;;;;;3.03;1.60;;;;;;;27.11;19.15;100792.41;5027429;28;20722;-66
2023/06/04 07:58:21;;;;;;;2.10;1.30;;;;;;;27.01;19.71;100788.38;5025890;28;20199;-66
2023/06/04 08:00:48;;;;;;;3.00;1.40;;;;;;;27.22;20.29;100786.44;5024831;28;20238;-66
2023/06/04 08:03:18;;;;;;;1.85;1.27;;;;;;;27.62;19.87;100791.72;5029450;28;20198;-67
2023/06/04 08:05:44;;;;;;;1.30;1.17;;;;;;;28.06;19.97;100788.53;5026030;28;20326;-66
2023/06/04 08:08:11;;;;;;;2.65;1.30;;;;;;;28.04;19.34;100791.34;5026595;28;20204;-66
2023/06/04 08:10:39;;;;;;;4.93;1.23;;;;;;;27.85;19.66;100790.53;5029787;28;20194;-67
2023/06/04 08:13:05;;;;;;;2.65;1.40;;;;;;;27.26;19.82;100788.97;5028749;28;20202;-66
2023/06/04 08:15:33;;;;;;;4.13;1.50;;;;;;;27.46;19.62;100794.28;5023140;28;20223;-66
2023/06/04 08:17:59;;;;;;;2.92;1.30;;;;;;;27.41;19.99;100785.47;5024375;28;20286;-67
2023/06/04 08:20:26;;;;;;;1.77;1.40;;;;;;;27.20;20.72;100785.63;5028339;28;20658;-66
2023/06/04 08:22:52;;;;;;;3.65;1.80;;;;;;;26.32;21.24;100790.66;5024723;28;20207;-66
2023/06/04 08:25:19;;;;;;;7.25;1.42;;;;;;;25.71;21.90;100796.97;5025927;28;20356;-67
2023/06/04 08:27:45;;;;;;;3.65;1.50;;;;;;;25.36;22.63;100792.09;5026497;28;20196;-66
2023/06/04 08:30:12;;;;;;;3.08;1.67;;;;;;;25.46;22.38;100788.03;5028778;28;20195;-66
2023/06/04 08:32:40;;;;;;;1.77;1.30;;;;;;;24.74;22.65;100788.19;5026227;28;20196;-66
2023/06/04 08:35:07;;;;;;;2.05;1.38;;;;;;;24.31;24.03;100789.81;5026651;28;20734;-66
2023/06/04 08:37:33;;;;;;;2.97;1.50;;;;;;;24.44;24.06;100786.66;5028457;28;20279;-66
2023/06/04 08:40:00;;;;;;;1.80;1.42;;;;;;;24.22;24.12;100782.00;5026225;28;20230;-66
2023/06/04 08:42:31;;;;;;;4.38;1.50;;;;;;;24.18;24.32;100785.75;5027538;28;20638;-66
2023/06/04 08:44:58;;;;;;;3.22;1.60;;;;;;;24.13;24.33;100787.75;5022934;28;20227;-66
2023/06/04 08:47:28;;;;;;;4.22;1.60;;;;;;;24.15;24.27;100788.56;5026760;28;20356;-66
2023/06/04 08:49:59;;;;;;;4.57;1.45;;;;;;;24.16;24.52;100779.50;5025993;28;20200;-66
2023/06/04 08:52:27;;;;;;;1.60;1.35;;;;;;;24.08;24.52;100788.84;5023546;28;20250;-66
2023/06/04 08:54:54;;;;;;;2.80;1.50;;;;;;;23.42;24.64;100791.06;5027308;28;20663;-66
2023/06/04 08:57:21;;;;;;;3.85;1.40;;;;;;;23.39;25.36;100791.19;5026442;28;20210;-66
2023/06/04 08:59:48;;;;;;;4.68;1.70;;;;;;;23.72;26.08;100802.72;5024680;28;20298;-66
2023/06/04 09:02:14;;;;;;;2.35;1.70;;;;;;;23.83;25.28;100792.41;5017549;28;20286;-67
2023/06/04 09:04:42;;;;;;;4.80;1.48;;;;;;;24.00;24.04;100781.88;5023965;28;20196;-67
2023/06/04 09:07:12;;;;;;;5.03;1.50;;;;;;;23.83;23.61;100803.22;5026561;28;20195;-67
2023/06/04 09:09:40;;;;;;;3.63;1.40;;;;;;;23.28;24.03;100799.66;5024713;28;20201;-67
2023/06/04 09:12:11;;;;;;;1.58;1.15;;;;;;;22.98;25.20;100809.59;5020437;28;20192;-67
2023/06/04 09:14:37;;;;;;;5.13;1.25;;;;;;;23.14;25.50;100804.59;5024251;28;20209;-68
2023/06/04 09:17:05;;;;;;;4.72;1.50;;;;;;;23.52;26.26;100805.16;5024265;28;20199;-68
2023/06/04 09:19:31;;;;;;;2.67;1.65;;;;;;;23.18;25.47;100797.25;5025520;28;20676;-69
2023/06/04 09:22:02;;;;;;;1.80;1.48;;;;;;;22.95;24.64;100798.88;5025649;28;20252;-68
2023/06/04 09:24:41;;;;;;;3.17;1.60;;;;;;;23.25;26.56;100798.88;5023782;28;20220;-68
2023/06/04 09:27:18;;;;;;;3.42;1.70;;;;;;;23.62;25.82;100795.88;5023527;28;20195;-68
2023/06/04 09:29:56;;;;;;;2.08;1.50;;;;;;;23.79;25.30;100798.00;5023481;28;20191;-68
2023/06/04 09:32:30;;;;;;;2.55;1.80;;;;;;;23.95;25.33;100800.09;5024884;28;20290;-68
2023/06/04 09:35:11;;;;;;;3.35;1.48;;;;;;;23.90;25.13;100795.78;5025452;28;20219;-68
2023/06/04 09:37:39;;;;;;;3.85;1.65;;;;;;;23.95;25.10;100805.50;5026810;28;20191;-68
2023/06/04 09:40:07;;;;;;;5.22;1.50;;;;;;;23.84;25.65;100796.88;5024786;28;20290;-68
2023/06/04 09:42:43;;;;;;;2.55;1.70;;;;;;;23.73;25.60;100790.97;5020847;28;20282;-68
2023/06/04 09:45:11;;;;;;;2.55;1.70;;;;;;;23.95;25.81;100796.50;5022860;28;20306;-68
2023/06/04 09:47:42;;;;;;;3.10;1.70;;;;;;;24.22;24.73;100795.53;5026402;28;20694;-68
2023/06/04 09:50:12;;;;;;;3.90;1.50;;;;;;;24.35;24.50;100794.16;5024567;28;20710;-69
2023/06/04 09:52:39;;;;;;;2.28;1.45;;;;;;;24.26;24.63;100793.59;5025381;28;20195;-68
2023/06/04 09:55:20;;;;;;;2.95;1.70;;;;;;;24.41;24.69;100789.44;5026799;28;20625;-68
2023/06/04 09:57:50;;;;;;;4.60;1.58;;;;;;;24.49;25.32;100790.06;5024868;28;20718;-68
2023/06/04 10:00:18;;;;;;;2.42;1.45;;;;;;;24.58;24.60;100795.13;5029569;28;20277;-68
2023/06/04 10:02:47;;;;;;;2.80;1.30;;;;;;;24.53;24.85;100783.59;5029552;28;20200;-68
2023/06/04 10:05:15;;;;;;;2.25;1.60;;;;;;;24.46;25.22;100782.06;5027672;28;20227;-69
2023/06/04 10:07:46;;;;;;;3.78;1.40;;;;;;;24.71;24.60;100784.72;5030269;28;20204;-68
2023/06/04 10:10:18;;;;;;;3.05;1.50;;;;;;;24.82;24.39;100788.78;5030972;28;20286;-68
2023/06/04 10:12:50;;;;;;;7.13;1.50;;;;;;;24.54;23.01;100794.38;5030558;28;20200;-68
2023/06/04 10:15:17;;;;;;;4.18;1.60;;;;;;;24.24;23.06;100792.75;5019695;28;20215;-68
2023/06/04 10:17:44;;;;;;;3.58;1.30;;;;;;;23.95;22.10;100794.69;5025678;28;20199;-68
2023/06/04 10:20:11;;;;;;;2.00;1.60;;;;;;;23.97;21.84;100789.22;5019848;28;20272;-68
2023/06/04 10:22:38;;;;;;;4.45;1.60;;;;;;;24.24;23.44;100793.66;5025650;28;20192;-68
2023/06/04 10:25:06;;;;;;;1.90;1.60;;;;;;;24.56;23.25;100795.19;5031297;28;20216;-68
2023/06/04 10:27:35;;;;;;;2.83;1.40;;;;;;;24.74;22.88;100785.47;5031891;28;20196;-68
2023/06/04 10:30:04;;;;;;;2.40;1.48;;;;;;;24.65;21.69;100778.59;5026151;28;20847;-68
2023/06/04 10:32:30;;;;;;;2.47;1.20;;;;;;;24.76;22.25;100785.41;5031177;28;20668;-68
2023/06/04 10:34:57;;;;;;;3.83;1.40;;;;;;;24.92;22.88;100790.19;5028072;28;20798;-68
2023/06/04 10:37:25;;;;;;;4.70;1.75;;;;;;;24.93;22.45;100791.06;5028244;28;20738;-68
2023/06/04 10:39:56;;;;;;;3.50;1.65;;;;;;;24.26;22.22;100802.59;5029451;28;20287;-68
2023/06/04 10:42:24;;;;;;;1.52;1.35;;;;;;;24.02;22.28;100789.97;5031299;28;20219;-68
2023/06/04 10:44:55;;;;;;;2.22;1.35;;;;;;;24.38;22.70;100785.03;5028438;28;20337;-68
2023/06/04 10:47:26;;;;;;;5.60;1.17;;;;;;;24.16;24.13;100786.75;5030796;28;20707;-67
2023/06/04 10:49:54;;;;;;;3.72;1.55;;;;;;;24.16;24.70;100782.22;5030530;28;20578;-68
2023/06/04 10:52:21;;;;;;;2.53;1.70;;;;;;;24.20;23.54;100786.56;5014491;28;20202;-66
2023/06/04 10:54:48;;;;;;;3.05;1.83;;;;;;;24.12;23.74;100785.97;5029185;28;20202;-67
2023/06/04 10:57:17;;;;;;;2.97;1.70;;;;;;;24.42;23.32;100775.88;5028640;28;20215;-67
2023/06/04 10:59:57;;;;;;;2.03;1.20;;;;;;;24.23;23.67;100786.47;5027417;28;20203;-67
2023/06/04 11:02:24;;;;;;;2.38;1.38;;;;;;;24.10;23.69;100774.31;5029321;28;20760;-66
2023/06/04 11:05:06;;;;;;;3.97;1.80;;;;;;;24.10;22.89;100786.97;5028950;28;20196;-67
2023/06/04 11:07:44;;;;;;;7.43;1.55;;;;;;;24.05;23.37;100788.03;5026376;28;20199;-68
2023/06/04 11:10:13;;;;;;;3.40;1.85;;;;;;;24.36;23.06;100779.69;5022977;28;20218;-69
2023/06/04 11:12:47;;;;;;;2.63;1.48;;;;;;;24.50;23.32;100781.91;5027387;28;20214;-70
2023/06/04 11:15:15;;;;;;;2.75;1.73;;;;;;;24.50;23.75;100783.72;5028804;28;20225;-70
2023/06/04 11:17:58;;;;;;;2.45;1.92;;;;;;;24.79;22.91;100780.75;5026586;28;20590;-67
2023/06/04 11:20:25;;;;;;;3.92;1.50;;;;;;;24.68;23.30;100783.88;5027044;28;20199;-68
2023/06/04 11:22:55;;;;;;;2.35;1.40;;;;;;;24.27;23.49;100779.09;5030642;28;20269;-67
2023/06/04 11:25:26;;;;;;;2.60;1.50;;;;;;;24.47;24.69;100778.41;5031174;28;20707;-67
2023/06/04 11:27:54;;;;;;;3.40;1.70;;;;;;;24.16;22.70;100787.63;5030616;28;20280;-67